Time;durP1;ratioP1;P1;durP2;ratioP2;P2;SDS_P1;SDS_P2;PMS_P1;PMS_P2;Temp;Humidity;BMP_temperature;BMP_pressure;BME280_temperature;BME280_humidity;BME280_pressure;Samples;Min_cycle;Max_cycle;Signal;HPM_P1;HPM_P2
2023/10/21 00:01:39;;;;;;;1.52;0.63;;;;;;;;;;5068059;28;20211;-70
2023/10/21 00:04:06;;;;;;;0.73;0.68;;;;;;;;;;5066457;28;20207;-71
2023/10/21 00:06:36;;;;;;;1.45;0.75;;;;;;;;;;5066655;28;20203;-72
2023/10/21 00:09:03;;;;;;;0.70;0.50;;;;;;;;;;5066906;28;20222;-70
2023/10/21 00:11:30;;;;;;;1.27;0.40;;;;;;;;;;5063715;28;20199;-68
2023/10/21 00:13:57;;;;;;;0.60;0.60;;;;;;;;;;5063756;28;20199;-71
2023/10/21 00:16:25;;;;;;;0.75;0.50;;;;;;;;;;5055110;28;20209;-70
2023/10/21 00:18:53;;;;;;;0.47;0.47;;;;;;;;;;5062695;28;20227;-71
2023/10/21 00:21:20;;;;;;;1.65;0.30;;;;;;;;;;5059723;28;20199;-71
2023/10/21 00:23:47;;;;;;;0.50;0.50;;;;;;;;;;5063613;28;20207;-70
2023/10/21 00:26:17;;;;;;;0.85;0.38;;;;;;;;;;5067740;28;20202;-70
2023/10/21 00:28:44;;;;;;;0.43;0.30;;;;;;;;;;5066305;28;20203;-70
2023/10/21 00:31:11;;;;;;;0.40;0.30;;;;;;;;;;5070551;28;20213;-70
2023/10/21 00:33:38;;;;;;;0.30;0.30;;;;;;;;;;5068983;28;20201;-70
2023/10/21 00:36:07;;;;;;;0.85;0.40;;;;;;;;;;5071362;28;20233;-65
2023/10/21 00:38:34;;;;;;;0.77;0.40;;;;;;;;;;5071393;28;20566;-64
2023/10/21 00:41:01;;;;;;;2.42;0.90;;;;;;;;;;5069674;28;20217;-64
2023/10/21 00:43:38;;;;;;;0.30;0.22;;;;;;;;;;5069457;28;20213;-65
2023/10/21 00:46:07;;;;;;;0.20;0.20;;;;;;;;;;5069803;28;20203;-65
2023/10/21 00:48:34;;;;;;;0.30;0.30;;;;;;;;;;5068632;28;20256;-64
2023/10/21 00:51:02;;;;;;;0.40;0.40;;;;;;;;;;5072303;28;20195;-65
2023/10/21 00:53:31;;;;;;;0.75;0.30;;;;;;;;;;5068677;28;20206;-64
2023/10/21 00:55:58;;;;;;;0.10;0.10;;;;;;;;;;5067956;28;20213;-64
2023/10/21 00:58:27;;;;;;;0.38;0.38;;;;;;;;;;5068960;28;20218;-64
2023/10/21 01:00:54;;;;;;;0.30;0.30;;;;;;;;;;5067376;28;20199;-65
2023/10/21 01:03:22;;;;;;;0.45;0.45;;;;;;;;;;5070432;28;20195;-64
2023/10/21 01:05:49;;;;;;;0.40;0.40;;;;;;;;;;5069217;28;20260;-64
2023/10/21 01:08:17;;;;;;;0.52;0.52;;;;;;;;;;5068322;28;20203;-64
2023/10/21 01:10:45;;;;;;;0.90;0.52;;;;;;;;;;5069769;28;20211;-64
2023/10/21 01:13:12;;;;;;;0.80;0.60;;;;;;;;;;5068402;28;20210;-65
2023/10/21 01:15:39;;;;;;;0.30;0.30;;;;;;;;;;5064957;28;20207;-65
2023/10/21 01:18:07;;;;;;;0.20;0.20;;;;;;;;;;5066733;28;20257;-64
2023/10/21 01:20:35;;;;;;;2.60;0.40;;;;;;;;;;5067702;28;20551;-65
2023/10/21 01:23:02;;;;;;;0.50;0.40;;;;;;;;;;5069001;28;20198;-65
2023/10/21 01:25:32;;;;;;;0.57;0.32;;;;;;;;;;5067643;28;20195;-65
2023/10/21 01:27:59;;;;;;;0.47;0.40;;;;;;;;;;5066226;28;20195;-65
2023/10/21 01:30:27;;;;;;;0.50;0.50;;;;;;;;;;5069980;28;20207;-65
2023/10/21 01:32:54;;;;;;;1.92;0.40;;;;;;;;;;5066822;28;20566;-64
2023/10/21 01:35:22;;;;;;;0.30;0.30;;;;;;;;;;5068248;28;20230;-65
2023/10/21 01:37:49;;;;;;;1.33;0.40;;;;;;;;;;5068634;28;20271;-64
2023/10/21 01:40:17;;;;;;;0.40;0.35;;;;;;;;;;5070132;28;20199;-65
2023/10/21 01:42:45;;;;;;;0.28;0.28;;;;;;;;;;5068133;28;20203;-65
2023/10/21 01:45:12;;;;;;;0.52;0.30;;;;;;;;;;5069675;28;20207;-70
2023/10/21 01:47:39;;;;;;;0.40;0.40;;;;;;;;;;5067979;28;20199;-70
2023/10/21 01:50:08;;;;;;;0.30;0.30;;;;;;;;;;5067991;28;20205;-70
2023/10/21 01:52:36;;;;;;;0.45;0.35;;;;;;;;;;5069619;28;20202;-70
2023/10/21 01:55:04;;;;;;;1.58;0.40;;;;;;;;;;5070094;28;20207;-69
2023/10/21 01:57:31;;;;;;;0.40;0.40;;;;;;;;;;5068093;28;20452;-69
2023/10/21 02:00:01;;;;;;;0.55;0.40;;;;;;;;;;5065920;28;20500;-70
2023/10/21 02:02:28;;;;;;;1.15;0.50;;;;;;;;;;5069713;28;20194;-69
2023/10/21 02:04:55;;;;;;;0.45;0.40;;;;;;;;;;5067436;28;20199;-69
2023/10/21 02:07:22;;;;;;;1.02;0.40;;;;;;;;;;5063469;28;20217;-69
2023/10/21 02:09:49;;;;;;;0.28;0.28;;;;;;;;;;5068633;28;20232;-71
2023/10/21 02:12:17;;;;;;;0.30;0.22;;;;;;;;;;5064879;28;20203;-70
2023/10/21 02:14:44;;;;;;;0.38;0.30;;;;;;;;;;5067887;28;20203;-70
2023/10/21 02:17:12;;;;;;;0.47;0.30;;;;;;;;;;5067310;28;20207;-70
2023/10/21 02:19:39;;;;;;;0.65;0.40;;;;;;;;;;5067209;28;20219;-70
2023/10/21 02:22:06;;;;;;;0.60;0.50;;;;;;;;;;5067460;28;20206;-70
2023/10/21 02:24:37;;;;;;;0.68;0.50;;;;;;;;;;5066548;28;20198;-70
2023/10/21 02:27:04;;;;;;;1.00;0.52;;;;;;;;;;5067561;28;20217;-70
2023/10/21 02:29:32;;;;;;;2.53;0.47;;;;;;;;;;5067407;28;20214;-69
2023/10/21 02:31:59;;;;;;;0.45;0.45;;;;;;;;;;5066939;28;20211;-69
2023/10/21 02:34:28;;;;;;;0.80;0.50;;;;;;;;;;5068197;28;20202;-69
2023/10/21 02:36:56;;;;;;;0.73;0.50;;;;;;;;;;5066043;28;20231;-69
2023/10/21 02:39:23;;;;;;;0.60;0.60;;;;;;;;;;5068659;28;20218;-69
2023/10/21 02:41:50;;;;;;;0.77;0.75;;;;;;;;;;5068064;28;20217;-70
2023/10/21 02:44:17;;;;;;;0.73;0.73;;;;;;;;;;5064588;28;20203;-70
2023/10/21 02:46:44;;;;;;;0.68;0.68;;;;;;;;;;5068474;28;20217;-70
2023/10/21 02:49:11;;;;;;;1.70;0.60;;;;;;;;;;5069502;28;20207;-70
2023/10/21 02:51:40;;;;;;;1.05;0.80;;;;;;;;;;5072413;28;20217;-69
2023/10/21 02:54:07;;;;;;;1.23;0.90;;;;;;;;;;5068450;28;20247;-70
2023/10/21 02:56:34;;;;;;;1.98;1.13;;;;;;;;;;5067673;28;20206;-64
2023/10/21 02:59:02;;;;;;;1.63;1.15;;;;;;;;;;5069884;28;20222;-65
2023/10/21 03:01:30;;;;;;;1.75;1.08;;;;;;;;;;5070270;28;20203;-64
2023/10/21 03:03:57;;;;;;;1.52;1.10;;;;;;;;;;5070736;28;20285;-65
2023/10/21 03:06:24;;;;;;;3.50;1.02;;;;;;;;;;5068213;28;20198;-64
2023/10/21 03:08:53;;;;;;;4.07;1.50;;;;;;;;;;5072495;28;20202;-64
2023/10/21 03:11:20;;;;;;;2.17;1.13;;;;;;;;;;5068941;28;20295;-64
2023/10/21 03:13:47;;;;;;;1.90;1.40;;;;;;;;;;5069104;28;20235;-64
2023/10/21 03:16:15;;;;;;;3.17;1.40;;;;;;;;;;5069383;28;20203;-66
2023/10/21 03:18:42;;;;;;;3.05;1.50;;;;;;;;;;5070485;28;20221;-64
2023/10/21 03:21:10;;;;;;;2.97;1.60;;;;;;;;;;5068677;28;20230;-65
2023/10/21 03:23:37;;;;;;;2.10;1.50;;;;;;;;;;5066776;28;20264;-64
2023/10/21 03:26:06;;;;;;;3.35;1.40;;;;;;;;;;5066789;28;20214;-64
2023/10/21 03:28:34;;;;;;;3.70;1.40;;;;;;;;;;5067484;28;20203;-64
2023/10/21 03:31:02;;;;;;;2.28;1.30;;;;;;;;;;5068889;28;20275;-64
2023/10/21 03:33:30;;;;;;;2.30;1.20;;;;;;;;;;5068744;28;20203;-64
2023/10/21 03:35:57;;;;;;;1.50;1.10;;;;;;;;;;5069042;28;20227;-64
2023/10/21 03:38:25;;;;;;;1.48;1.23;;;;;;;;;;5067393;28;20219;-65
2023/10/21 03:40:55;;;;;;;2.38;1.30;;;;;;;;;;5069790;28;20195;-64
2023/10/21 03:43:24;;;;;;;2.08;1.30;;;;;;;;;;5064731;28;20206;-64
2023/10/21 03:45:51;;;;;;;2.28;1.30;;;;;;;;;;5069755;28;20209;-65
2023/10/21 03:48:18;;;;;;;3.00;1.50;;;;;;;;;;5070829;28;20207;-65
2023/10/21 03:50:45;;;;;;;3.15;1.50;;;;;;;;;;5068023;28;20425;-64
2023/10/21 03:53:14;;;;;;;4.70;1.70;;;;;;;;;;5069303;28;20211;-65
2023/10/21 03:55:42;;;;;;;6.10;2.00;;;;;;;;;;5068800;28;20240;-65
2023/10/21 03:58:10;;;;;;;3.40;1.38;;;;;;;;;;5068635;28;20198;-66
2023/10/21 04:00:38;;;;;;;2.47;1.23;;;;;;;;;;5066025;28;20218;-65
2023/10/21 04:03:07;;;;;;;3.22;1.25;;;;;;;;;;5067805;28;20199;-65
2023/10/21 04:05:34;;;;;;;2.92;1.23;;;;;;;;;;5065520;28;20268;-65
2023/10/21 04:08:04;;;;;;;4.53;1.20;;;;;;;;;;5068545;28;20199;-65
2023/10/21 04:10:32;;;;;;;1.90;1.20;;;;;;;;;;5069394;28;20317;-65
2023/10/21 04:13:01;;;;;;;1.42;1.15;;;;;;;;;;5066178;28;20206;-64
2023/10/21 04:15:28;;;;;;;1.77;1.10;;;;;;;;;;5068677;28;20199;-65
2023/10/21 04:17:57;;;;;;;2.17;1.02;;;;;;;;;;5068928;28;20207;-65
2023/10/21 04:20:24;;;;;;;2.33;1.17;;;;;;;;;;5066319;28;20230;-66
2023/10/21 04:22:51;;;;;;;1.88;1.00;;;;;;;;;;5069923;28;20211;-65
2023/10/21 04:25:18;;;;;;;1.75;0.80;;;;;;;;;;5065223;28;20198;-65
2023/10/21 04:27:45;;;;;;;1.55;0.77;;;;;;;;;;5069295;28;20199;-64
2023/10/21 04:30:13;;;;;;;0.70;0.70;;;;;;;;;;5067977;28;20203;-64
2023/10/21 04:32:40;;;;;;;2.55;0.80;;;;;;;;;;5068636;28;20272;-65
2023/10/21 04:35:09;;;;;;;1.40;0.70;;;;;;;;;;5066264;28;20236;-65
2023/10/21 04:37:36;;;;;;;1.85;0.90;;;;;;;;;;5067810;28;20234;-65
2023/10/21 04:40:04;;;;;;;1.37;0.87;;;;;;;;;;5069868;28;20230;-64
2023/10/21 04:42:31;;;;;;;2.05;0.80;;;;;;;;;;5067397;28;20206;-65
2023/10/21 04:44:58;;;;;;;1.02;0.57;;;;;;;;;;5069028;28;20202;-64
2023/10/21 04:47:25;;;;;;;1.20;0.70;;;;;;;;;;5069394;28;20198;-64
2023/10/21 04:49:52;;;;;;;2.05;0.50;;;;;;;;;;5066683;28;20191;-65
2023/10/21 04:52:21;;;;;;;1.05;0.40;;;;;;;;;;5066820;28;20203;-64
2023/10/21 04:54:48;;;;;;;0.68;0.50;;;;;;;;;;5068478;28;20213;-65
2023/10/21 04:57:16;;;;;;;0.50;0.40;;;;;;;;;;5065528;28;20199;-65
2023/10/21 04:59:44;;;;;;;0.80;0.55;;;;;;;;;;5069440;28;20241;-64
2023/10/21 05:02:11;;;;;;;0.47;0.47;;;;;;;;;;5066237;28;20198;-64
2023/10/21 05:04:41;;;;;;;0.40;0.40;;;;;;;;;;5067012;28;20199;-64
2023/10/21 05:07:08;;;;;;;0.65;0.50;;;;;;;;;;5067738;28;20202;-64
2023/10/21 05:09:37;;;;;;;0.60;0.40;;;;;;;;;;5065850;28;20536;-66
2023/10/21 05:12:04;;;;;;;1.13;0.50;;;;;;;;;;5063167;28;20212;-64
2023/10/21 05:14:31;;;;;;;0.50;0.40;;;;;;;;;;5064412;28;20203;-64
2023/10/21 05:16:58;;;;;;;1.57;0.53;;;;;;;;;;5069605;28;20203;-65
2023/10/21 05:19:25;;;;;;;2.23;0.83;;;;;;;;;;5067023;28;20211;-64
2023/10/21 05:21:52;;;;;;;0.50;0.43;;;;;;;;;;5065626;28;20252;-65
2023/10/21 05:24:20;;;;;;;1.30;0.60;;;;;;;;;;5068605;28;20207;-65
2023/10/21 05:26:48;;;;;;;1.37;0.47;;;;;;;;;;5068727;28;20206;-65
2023/10/21 05:29:15;;;;;;;1.63;0.60;;;;;;;;;;5065006;28;20205;-64
2023/10/21 05:31:42;;;;;;;1.48;0.57;;;;;;;;;;5066064;28;20226;-65
2023/10/21 05:34:10;;;;;;;2.33;0.40;;;;;;;;;;5068416;28;20213;-65
2023/10/21 05:36:37;;;;;;;1.07;0.60;;;;;;;;;;5064468;28;20230;-64
2023/10/21 05:39:05;;;;;;;0.93;0.40;;;;;;;;;;5068380;28;20290;-65
2023/10/21 05:41:32;;;;;;;0.60;0.60;;;;;;;;;;5069418;28;20209;-64
2023/10/21 05:44:01;;;;;;;1.60;0.50;;;;;;;;;;5066895;28;20209;-65
2023/10/21 05:46:28;;;;;;;2.93;1.80;;;;;;;;;;5068774;28;20194;-65
2023/10/21 05:48:55;;;;;;;2.25;0.45;;;;;;;;;;5066789;28;20195;-65
2023/10/21 05:51:22;;;;;;;2.13;0.50;;;;;;;;;;5066425;28;20234;-66
2023/10/21 05:53:50;;;;;;;2.33;0.60;;;;;;;;;;5067619;28;20203;-65
2023/10/21 05:56:17;;;;;;;1.58;0.40;;;;;;;;;;5067223;28;20203;-65
2023/10/21 05:58:44;;;;;;;1.37;0.80;;;;;;;;;;5069304;28;20300;-64
2023/10/21 06:01:12;;;;;;;0.87;0.27;;;;;;;;;;5066475;28;20199;-65
2023/10/21 06:03:40;;;;;;;1.93;0.70;;;;;;;;;;5069792;28;20199;-64
2023/10/21 06:06:07;;;;;;;1.07;0.60;;;;;;;;;;5063034;28;20211;-65
2023/10/21 06:08:34;;;;;;;1.33;0.60;;;;;;;;;;5067038;28;20304;-65
2023/10/21 06:11:01;;;;;;;1.47;0.50;;;;;;;;;;5066794;28;20203;-65
2023/10/21 06:13:29;;;;;;;1.07;0.57;;;;;;;;;;5063624;28;20290;-65
2023/10/21 06:15:56;;;;;;;0.97;0.60;;;;;;;;;;5067982;28;20205;-65
2023/10/21 06:18:25;;;;;;;3.00;0.90;;;;;;;;;;5067336;28;20203;-65
2023/10/21 06:20:53;;;;;;;2.13;0.50;;;;;;;;;;5070282;28;20313;-64
2023/10/21 06:23:21;;;;;;;1.70;0.60;;;;;;;;;;5069453;28;20206;-65
2023/10/21 06:25:49;;;;;;;1.30;0.53;;;;;;;;;;5072768;28;20214;-65
2023/10/21 06:28:16;;;;;;;0.93;0.43;;;;;;;;;;5069252;28;20210;-66
2023/10/21 06:30:43;;;;;;;0.40;0.40;;;;;;;;;;5065276;28;20206;-65
2023/10/21 06:33:10;;;;;;;2.47;0.70;;;;;;;;;;5066740;28;20198;-64
2023/10/21 06:35:39;;;;;;;1.33;0.70;;;;;;;;;;5070750;28;20195;-66
2023/10/21 06:38:06;;;;;;;1.00;0.70;;;;;;;;;;5066124;28;20201;-66
2023/10/21 06:40:34;;;;;;;1.83;0.70;;;;;;;;;;5066547;28;20227;-66
2023/10/21 06:43:01;;;;;;;2.40;0.60;;;;;;;;;;5067374;28;20206;-65
2023/10/21 06:45:29;;;;;;;4.33;0.70;;;;;;;;;;5068068;28;20266;-65
2023/10/21 06:47:56;;;;;;;1.53;0.80;;;;;;;;;;5064879;28;20210;-66
2023/10/21 06:50:23;;;;;;;2.23;0.70;;;;;;;;;;5065649;28;20205;-65
2023/10/21 06:52:52;;;;;;;3.77;0.90;;;;;;;;;;5068226;28;20277;-65
2023/10/21 06:55:21;;;;;;;1.27;0.60;;;;;;;;;;5065246;28;20229;-65
2023/10/21 06:57:48;;;;;;;3.50;0.83;;;;;;;;;;5068601;28;20225;-66
2023/10/21 07:00:16;;;;;;;1.50;0.70;;;;;;;;;;5068772;28;20226;-65
2023/10/21 07:02:43;;;;;;;3.43;0.60;;;;;;;;;;5070454;28;20209;-65
2023/10/21 07:05:10;;;;;;;6.03;0.87;;;;;;;;;;5071097;28;20214;-65
2023/10/21 07:07:40;;;;;;;1.57;0.70;;;;;;;;;;5063401;28;20248;-66
2023/10/21 07:10:10;;;;;;;1.43;0.47;;;;;;;;;;5064029;28;20194;-65
2023/10/21 07:12:38;;;;;;;2.70;0.70;;;;;;;;;;5071890;28;20210;-65
2023/10/21 07:15:05;;;;;;;2.43;0.80;;;;;;;;;;5070711;28;20203;-65
2023/10/21 07:17:33;;;;;;;3.90;0.70;;;;;;;;;;5065343;28;20245;-65
2023/10/21 07:20:00;;;;;;;4.20;0.73;;;;;;;;;;5062412;28;20227;-66
2023/10/21 07:22:28;;;;;;;2.80;0.90;;;;;;;;;;5065542;28;20206;-65
2023/10/21 07:24:55;;;;;;;2.57;0.70;;;;;;;;;;5065312;28;20198;-65
2023/10/21 07:27:24;;;;;;;2.07;0.90;;;;;;;;;;5067772;28;20195;-64
2023/10/21 07:29:50;;;;;;;3.63;1.00;;;;;;;;;;5066040;28;20195;-65
2023/10/21 07:32:17;;;;;;;2.70;1.00;;;;;;;;;;5069552;28;20199;-65
2023/10/21 07:34:44;;;;;;;9.10;1.20;;;;;;;;;;5065495;28;20203;-70
2023/10/21 07:37:11;;;;;;;1.73;0.80;;;;;;;;;;5064944;28;20238;-69
2023/10/21 07:39:38;;;;;;;1.77;0.70;;;;;;;;;;5066087;28;20231;-70
2023/10/21 07:42:06;;;;;;;1.63;0.80;;;;;;;;;;5069822;28;20206;-70
2023/10/21 07:44:34;;;;;;;2.63;0.87;;;;;;;;;;5070758;28;20203;-69
2023/10/21 07:47:02;;;;;;;2.73;0.73;;;;;;;;;;5066553;28;20217;-70
2023/10/21 07:49:29;;;;;;;2.03;1.13;;;;;;;;;;5068526;28;20252;-70
2023/10/21 07:51:57;;;;;;;2.30;0.93;;;;;;;;;;5070879;28;20202;-69
2023/10/21 07:54:24;;;;;;;3.33;0.90;;;;;;;;;;5072219;28;20227;-69
2023/10/21 07:56:52;;;;;;;1.80;0.80;;;;;;;;;;5066717;28;20217;-69
2023/10/21 07:59:19;;;;;;;5.23;1.60;;;;;;;;;;5060170;28;20214;-70
2023/10/21 08:01:47;;;;;;;3.83;1.13;;;;;;;;;;5064652;28;20199;-70
2023/10/21 08:04:14;;;;;;;4.70;1.03;;;;;;;;;;5064518;28;20203;-71
2023/10/21 08:06:44;;;;;;;3.07;0.97;;;;;;;;;;5068246;28;20206;-69
2023/10/21 08:09:14;;;;;;;3.37;1.30;;;;;;;;;;5065611;28;20203;-69
2023/10/21 08:11:41;;;;;;;2.13;0.73;;;;;;;;;;5051792;28;20202;-69
2023/10/21 08:14:08;;;;;;;2.97;1.10;;;;;;;;;;5054819;28;20222;-69
2023/10/21 08:16:36;;;;;;;2.67;1.00;;;;;;;;;;5057497;28;20211;-71
2023/10/21 08:19:04;;;;;;;4.73;1.23;;;;;;;;;;5061513;28;20199;-68
2023/10/21 08:21:33;;;;;;;4.77;1.33;;;;;;;;;;5056615;28;20234;-69
2023/10/21 08:24:02;;;;;;;4.23;1.10;;;;;;;;;;5066423;28;20238;-69
2023/10/21 08:26:29;;;;;;;3.53;1.10;;;;;;;;;;5060258;28;20211;-69
2023/10/21 08:28:57;;;;;;;3.53;0.80;;;;;;;;;;5066079;28;20248;-70
2023/10/21 08:31:24;;;;;;;4.00;0.90;;;;;;;;;;5058375;28;20194;-70
2023/10/21 08:33:51;;;;;;;3.63;1.00;;;;;;;;;;5065308;28;20199;-69
2023/10/21 08:36:21;;;;;;;3.50;1.10;;;;;;;;;;5064273;28;20253;-69
2023/10/21 08:38:48;;;;;;;4.20;1.10;;;;;;;;;;5060034;28;20203;-69
2023/10/21 08:41:16;;;;;;;5.03;1.40;;;;;;;;;;5062638;28;20229;-69
2023/10/21 08:43:45;;;;;;;8.65;1.40;;;;;;;;;;5062150;28;20202;-69
2023/10/21 08:46:13;;;;;;;2.33;1.10;;;;;;;;;;5054008;28;20309;-64
2023/10/21 08:48:41;;;;;;;3.47;1.20;;;;;;;;;;5063322;28;20293;-66
2023/10/21 08:51:09;;;;;;;4.80;1.10;;;;;;;;;;5057238;28;20199;-65
2023/10/21 08:53:39;;;;;;;3.72;1.10;;;;;;;;;;5058835;28;20248;-65
2023/10/21 08:56:06;;;;;;;2.88;1.10;;;;;;;;;;5069380;28;20276;-64
2023/10/21 08:58:33;;;;;;;4.03;1.30;;;;;;;;;;5062082;28;20264;-64
2023/10/21 09:01:00;;;;;;;3.67;1.00;;;;;;;;;;5059860;28;20222;-64
2023/10/21 09:03:27;;;;;;;3.50;1.13;;;;;;;;;;5059819;28;20297;-65
2023/10/21 09:06:10;;;;;;;3.13;1.00;;;;;;;;;;5067309;28;20206;-64
2023/10/21 09:08:40;;;;;;;3.25;1.02;;;;;;;;;;5057563;28;20623;-65
2023/10/21 09:11:08;;;;;;;1.88;0.70;;;;;;;;;;5065458;28;20294;-65
2023/10/21 09:13:35;;;;;;;5.55;1.30;;;;;;;;;;5063815;28;20236;-65
2023/10/21 09:16:04;;;;;;;2.03;0.80;;;;;;;;;;5061356;28;20214;-65
2023/10/21 09:18:34;;;;;;;1.50;0.82;;;;;;;;;;5061795;28;20274;-63
2023/10/21 09:21:01;;;;;;;2.85;0.98;;;;;;;;;;5052362;28;20246;-65
2023/10/21 09:23:28;;;;;;;3.63;1.00;;;;;;;;;;5060593;28;20206;-65
2023/10/21 09:25:57;;;;;;;2.85;1.00;;;;;;;;;;5061171;28;20209;-66
2023/10/21 09:28:24;;;;;;;2.92;0.88;;;;;;;;;;5063372;28;20226;-64
2023/10/21 09:30:58;;;;;;;4.45;1.30;;;;;;;;;;5059873;28;20195;-65
2023/10/21 09:33:26;;;;;;;3.92;1.10;;;;;;;;;;5056397;28;20498;-64
2023/10/21 09:36:03;;;;;;;2.13;1.20;;;;;;;;;;5046866;28;20237;-64
2023/10/21 09:38:36;;;;;;;3.65;1.13;;;;;;;;;;5063118;28;20206;-64
2023/10/21 09:41:07;;;;;;;3.55;1.25;;;;;;;;;;5060979;28;20217;-64
2023/10/21 09:43:36;;;;;;;2.17;0.93;;;;;;;;;;5060503;28;20210;-64
2023/10/21 09:46:05;;;;;;;7.85;1.35;;;;;;;;;;5068892;28;20206;-64
2023/10/21 09:48:35;;;;;;;7.15;1.38;;;;;;;;;;5066277;28;20199;-64
2023/10/21 09:51:03;;;;;;;4.57;1.27;;;;;;;;;;5068445;28;20249;-64
2023/10/21 09:53:35;;;;;;;3.17;1.10;;;;;;;;;;5068980;28;20206;-64
2023/10/21 09:56:03;;;;;;;4.55;1.10;;;;;;;;;;5061419;28;20202;-64
2023/10/21 09:58:32;;;;;;;4.43;1.15;;;;;;;;;;5070309;28;20206;-65
2023/10/21 10:01:02;;;;;;;3.35;1.20;;;;;;;;;;5062522;28;20230;-64
2023/10/21 10:03:33;;;;;;;2.53;1.08;;;;;;;;;;5064468;28;20226;-64
2023/10/21 10:06:03;;;;;;;3.47;1.15;;;;;;;;;;5061199;28;20204;-65
2023/10/21 10:08:30;;;;;;;2.47;1.20;;;;;;;;;;5058183;28;20245;-63
2023/10/21 10:10:58;;;;;;;2.45;1.00;;;;;;;;;;5066019;28;20199;-63
2023/10/21 10:13:26;;;;;;;5.22;1.33;;;;;;;;;;5062910;28;20198;-65
2023/10/21 10:15:55;;;;;;;2.72;1.00;;;;;;;;;;5064220;28;20211;-64
2023/10/21 10:18:23;;;;;;;2.88;1.00;;;;;;;;;;5066634;28;20203;-63
2023/10/21 10:20:52;;;;;;;8.07;1.13;;;;;;;;;;5065811;28;20226;-64
2023/10/21 10:23:20;;;;;;;3.97;1.38;;;;;;;;;;5057550;28;20206;-64
2023/10/21 10:25:49;;;;;;;4.35;1.45;;;;;;;;;;5064079;28;20206;-66
2023/10/21 10:28:17;;;;;;;2.47;1.23;;;;;;;;;;5067305;28;20264;-66
2023/10/21 10:30:45;;;;;;;5.95;1.52;;;;;;;;;;5070062;28;20191;-68
2023/10/21 10:33:17;;;;;;;7.03;1.48;;;;;;;;;;5059589;28;20225;-67
2023/10/21 10:35:46;;;;;;;2.58;1.02;;;;;;;;;;5062919;28;20820;-66
2023/10/21 10:38:19;;;;;;;4.00;1.10;;;;;;;;;;5062087;28;20206;-65
2023/10/21 10:40:47;;;;;;;3.97;1.45;;;;;;;;;;5059540;28;20361;-65
2023/10/21 10:43:14;;;;;;;5.90;1.40;;;;;;;;;;5060438;28;20195;-64
2023/10/21 10:45:41;;;;;;;4.72;1.23;;;;;;;;;;5065359;28;20277;-63
2023/10/21 10:48:09;;;;;;;2.58;1.23;;;;;;;;;;5060853;28;20195;-63
2023/10/21 10:50:38;;;;;;;6.60;1.75;;;;;;;;;;5065059;28;20203;-64
2023/10/21 10:53:14;;;;;;;4.43;1.60;;;;;;;;;;5067375;28;20301;-64
2023/10/21 10:55:43;;;;;;;4.38;1.35;;;;;;;;;;5062401;28;20209;-65
2023/10/21 10:58:11;;;;;;;3.20;1.40;;;;;;;;;;5067132;28;20203;-65
2023/10/21 11:00:39;;;;;;;5.45;1.30;;;;;;;;;;5063731;28;20230;-66
2023/10/21 11:03:06;;;;;;;4.70;1.30;;;;;;;;;;5064702;28;20210;-65
2023/10/21 11:05:35;;;;;;;3.25;1.40;;;;;;;;;;5065162;28;20195;-64
2023/10/21 11:08:04;;;;;;;6.45;1.52;;;;;;;;;;5062613;28;20202;-65
2023/10/21 11:10:32;;;;;;;4.18;1.58;;;;;;;;;;5064285;28;20873;-64
2023/10/21 11:13:00;;;;;;;5.13;1.13;;;;;;;;;;5065902;28;20199;-64
2023/10/21 11:15:27;;;;;;;3.70;1.40;;;;;;;;;;5067753;28;20209;-64
2023/10/21 11:17:54;;;;;;;5.15;1.52;;;;;;;;;;5069580;28;20201;-64
2023/10/21 11:20:21;;;;;;;2.53;1.40;;;;;;;;;;5070521;28;20203;-64
2023/10/21 11:22:48;;;;;;;4.15;1.58;;;;;;;;;;5068977;28;20206;-63
2023/10/21 11:25:17;;;;;;;3.80;1.48;;;;;;;;;;5068048;28;20224;-63
2023/10/21 11:27:44;;;;;;;2.75;1.23;;;;;;;;;;5062895;28;20203;-65
2023/10/21 11:30:12;;;;;;;3.88;1.30;;;;;;;;;;5067703;28;20206;-63
2023/10/21 11:32:39;;;;;;;6.85;1.70;;;;;;;;;;5070634;28;20195;-63
2023/10/21 11:35:09;;;;;;;4.70;1.38;;;;;;;;;;5064854;28;20210;-64
2023/10/21 11:37:36;;;;;;;4.60;1.60;;;;;;;;;;5069975;28;20296;-64
2023/10/21 11:40:03;;;;;;;5.40;1.40;;;;;;;;;;5066567;28;20205;-63
2023/10/21 11:42:32;;;;;;;3.70;1.33;;;;;;;;;;5068790;28;20219;-64
2023/10/21 11:45:01;;;;;;;4.07;1.50;;;;;;;;;;5067267;28;20205;-64
2023/10/21 11:47:29;;;;;;;4.65;1.40;;;;;;;;;;5070151;28;20234;-65
2023/10/21 11:49:56;;;;;;;4.18;1.50;;;;;;;;;;5063788;28;20218;-64
2023/10/21 11:52:25;;;;;;;3.90;1.20;;;;;;;;;;5070434;28;20195;-65
2023/10/21 11:57:56;;;;;;;3.40;1.25;;;;;;;;;;5065524;28;20215;-63
2023/10/21 12:06:44;;;;;;;8.00;1.80;;;;;;;;;;5065581;28;20202;-63
2023/10/21 12:14:58;;;;;;;5.50;1.73;;;;;;;;;;5069477;28;20207;-68
2023/10/21 12:18:12;;;;;;;6.22;1.55;;;;;;;;;;5067191;28;20226;-68
2023/10/21 12:23:58;;;;;;;4.97;1.20;;;;;;;;;;5066514;28;20213;-68
2023/10/21 12:34:42;;;;;;;4.50;1.60;;;;;;;;;;5065802;28;20287;-69
2023/10/21 12:42:49;;;;;;;4.97;1.98;;;;;;;;;;5050689;28;20239;-68
2023/10/21 12:45:18;;;;;;;3.53;1.20;;;;;;;;;;5066216;28;20290;-69
2023/10/21 12:47:48;;;;;;;3.58;1.35;;;;;;;;;;5064864;28;20201;-68
2023/10/21 12:50:15;;;;;;;3.15;1.23;;;;;;;;;;5050183;28;20269;-68
2023/10/21 12:52:43;;;;;;;3.67;1.10;;;;;;;;;;5047262;28;20290;-68
2023/10/21 12:55:11;;;;;;;4.85;1.60;;;;;;;;;;5050522;28;20238;-68
2023/10/21 12:57:39;;;;;;;4.20;1.65;;;;;;;;;;5050878;28;20223;-68
2023/10/21 13:00:07;;;;;;;5.63;1.60;;;;;;;;;;5047459;28;20196;-68
2023/10/21 13:02:35;;;;;;;3.33;1.25;;;;;;;;;;5038879;28;20314;-68
2023/10/21 13:05:04;;;;;;;3.22;1.30;;;;;;;;;;5045716;28;20203;-68
2023/10/21 13:07:31;;;;;;;3.10;1.20;;;;;;;;;;5044359;28;20200;-67
2023/10/21 13:09:59;;;;;;;3.90;1.33;;;;;;;;;;5040613;28;20207;-69
2023/10/21 13:12:26;;;;;;;3.95;1.30;;;;;;;;;;5042383;28;20436;-67
2023/10/21 13:14:53;;;;;;;2.92;1.10;;;;;;;;;;5042911;28;20271;-68
2023/10/21 13:17:21;;;;;;;7.47;1.63;;;;;;;;;;5045998;28;20207;-70
2023/10/21 13:19:49;;;;;;;5.57;1.80;;;;;;;;;;5044354;28;20214;-68
2023/10/21 13:22:18;;;;;;;5.80;1.58;;;;;;;;;;5041340;28;20216;-68
2023/10/21 13:24:48;;;;;;;5.78;1.45;;;;;;;;;;5040363;28;20207;-63
2023/10/21 13:27:16;;;;;;;3.13;1.30;;;;;;;;;;5045676;28;20226;-64
2023/10/21 13:29:43;;;;;;;3.83;1.23;;;;;;;;;;5045333;28;20311;-64
2023/10/21 13:32:10;;;;;;;4.30;1.40;;;;;;;;;;5043452;28;20192;-65
2023/10/21 13:34:38;;;;;;;4.88;1.50;;;;;;;;;;5041629;28;20206;-63
2023/10/21 13:37:05;;;;;;;4.80;1.48;;;;;;;;;;5045759;28;20238;-65
2023/10/21 13:39:34;;;;;;;2.85;1.10;;;;;;;;;;5043976;28;20203;-63
2023/10/21 13:42:05;;;;;;;4.93;1.20;;;;;;;;;;5047903;28;20215;-63
2023/10/21 13:44:34;;;;;;;3.22;1.25;;;;;;;;;;5047027;28;20286;-63
2023/10/21 13:47:01;;;;;;;3.25;1.02;;;;;;;;;;5043403;28;20230;-64
2023/10/21 13:49:29;;;;;;;5.05;1.27;;;;;;;;;;5046531;28;20207;-64
2023/10/21 13:51:56;;;;;;;5.70;1.40;;;;;;;;;;5045319;28;20195;-64
2023/10/21 13:54:23;;;;;;;3.13;1.20;;;;;;;;;;5045760;28;20206;-63
2023/10/21 13:56:52;;;;;;;3.83;1.00;;;;;;;;;;5045981;28;20204;-64
2023/10/21 13:59:21;;;;;;;1.88;1.10;;;;;;;;;;5049182;28;20208;-63
2023/10/21 14:01:48;;;;;;;2.72;1.00;;;;;;;;;;5048527;28;20211;-64
2023/10/21 14:04:17;;;;;;;2.88;1.00;;;;;;;;;;5048069;28;20238;-64
2023/10/21 14:06:46;;;;;;;2.83;1.35;;;;;;;;;;5045395;28;20219;-64
2023/10/21 14:09:22;;;;;;;3.15;1.02;;;;;;;;;;5045347;28;20226;-63
2023/10/21 14:11:49;;;;;;;2.55;1.00;;;;;;;;;;5045737;28;20207;-64
2023/10/21 14:14:18;;;;;;;4.30;1.00;;;;;;;;;;5045759;28;20206;-64
2023/10/21 14:16:45;;;;;;;3.55;1.20;;;;;;;;;;5044203;28;20245;-64
2023/10/21 14:19:12;;;;;;;1.63;0.80;;;;;;;;;;5046883;28;20203;-63
2023/10/21 14:21:39;;;;;;;2.42;0.85;;;;;;;;;;5045228;28;20223;-64
2023/10/21 14:24:07;;;;;;;3.60;1.25;;;;;;;;;;5045481;28;20211;-64
2023/10/21 14:26:34;;;;;;;4.10;1.10;;;;;;;;;;5046875;28;20200;-64
2023/10/21 14:29:01;;;;;;;3.13;1.10;;;;;;;;;;5049626;28;20210;-63
2023/10/21 14:31:30;;;;;;;2.17;1.00;;;;;;;;;;5048429;28;20226;-64
2023/10/21 14:33:57;;;;;;;5.13;1.27;;;;;;;;;;5049382;28;20253;-65
2023/10/21 14:36:24;;;;;;;4.22;1.40;;;;;;;;;;5049962;28;20231;-64
2023/10/21 14:38:51;;;;;;;2.13;0.80;;;;;;;;;;5051412;28;20203;-64
2023/10/21 14:41:19;;;;;;;3.03;1.17;;;;;;;;;;5048634;28;20200;-64
2023/10/21 14:43:46;;;;;;;2.75;1.17;;;;;;;;;;5051919;28;20291;-63
2023/10/21 14:46:13;;;;;;;4.72;1.30;;;;;;;;;;5054866;28;20236;-64
2023/10/21 14:48:41;;;;;;;2.95;1.30;;;;;;;;;;5053321;28;20213;-65
2023/10/21 14:51:09;;;;;;;3.13;1.15;;;;;;;;;;5052561;28;20204;-64
2023/10/21 14:53:36;;;;;;;4.50;1.23;;;;;;;;;;5052491;28;20204;-65
2023/10/21 14:56:03;;;;;;;2.72;1.40;;;;;;;;;;5052641;28;20210;-64
2023/10/21 14:58:30;;;;;;;3.63;1.00;;;;;;;;;;5050743;28;20208;-64
2023/10/21 15:00:57;;;;;;;4.07;1.02;;;;;;;;;;5043727;28;20204;-64
2023/10/21 15:03:25;;;;;;;4.32;1.58;;;;;;;;;;5047830;28;20253;-64
2023/10/21 15:05:54;;;;;;;2.92;1.30;;;;;;;;;;5048934;28;20222;-64
2023/10/21 15:08:23;;;;;;;3.45;1.20;;;;;;;;;;5050505;28;20226;-65
2023/10/21 15:10:50;;;;;;;1.92;0.90;;;;;;;;;;5048152;28;20204;-66
2023/10/21 15:13:18;;;;;;;5.22;1.38;;;;;;;;;;5049918;28;20200;-64
2023/10/21 15:15:45;;;;;;;3.28;1.05;;;;;;;;;;5047961;28;20203;-65
2023/10/21 15:18:12;;;;;;;5.72;1.50;;;;;;;;;;5049171;28;20203;-64
2023/10/21 15:20:39;;;;;;;5.32;1.30;;;;;;;;;;5048568;28;20203;-65